Great Bentley, United Kingdom
Current Conditions -  °F | °C
As of 3:50 AM on Sunday 26 Oct 2014 (Local Time) from EGUW Reporting Station
Clear Clear  
Wind Chill: 50°   Ceiling: Unl
Heat Index: 50°   Visibility: 6mi
Dew Point: 45°   Wind: 10mph
Humidity: 82%   Direction: 200°SSW
Pressure: 30.12"   Gusts: NA
Location:  51.85°N, 1.06°E
Report Text: EGUW 260250Z AUTO 20009KT 9999 NCD 10/07 Q1020
Loading
Personal Weather Stations






























Interactive Weather Map
Tropical Storm Tracking
New forecast layout! Learn more

10-Day Weather Forecast

Advertisements
Track Severe Weather on mobile